UEA233 KJFK-EGLL
Flight info
| Callsign | UEA233 |
|---|---|
| Flight time | N/A |
| Altitude | 29000 |
| Route | BETTE ACK GISTI/N0490F370 ENJEX SIRIC SIRI1H |
| Aircraft | CONC/H-SDE1E2E3FGHIJ2J3J4J5M1RWXY/LB1D1 |
Departure
| Time | N/A |
|---|---|
| Airport | John F. Kennedy International Airport (KJFK) |
Arrival
| Time | 2026-05-04 11:26 |
|---|---|
| Airport | London Heathrow Airport (EGLL) |
| Time | Latitude | Longitude | Altitude | Speed | Heading |
|---|---|---|---|---|---|
| 2026-05-04 10:00 | 51.29445 | -42.11622 | 60212 ft | 1169 kts | 72° |
| 2026-05-04 10:00 | 51.31775 | -41.99175 | 60221 ft | 1169 kts | 73° |
| 2026-05-04 10:04 | 51.63078 | -40.23134 | 60294 ft | 1162 kts | 74° |
| 2026-05-04 10:04 | 51.67305 | -39.97964 | 60306 ft | 1166 kts | 74° |
| 2026-05-04 10:05 | 51.71494 | -39.72650 | 60328 ft | 1171 kts | 74° |
| 2026-05-04 10:05 | 51.75646 | -39.47174 | 60331 ft | 1176 kts | 75° |
| 2026-05-04 10:06 | 51.79752 | -39.21602 | 60335 ft | 1179 kts | 75° |
| 2026-05-04 10:06 | 51.83812 | -38.95920 | 60349 ft | 1175 kts | 75° |
| 2026-05-04 10:08 | 51.97501 | -38.06211 | 60376 ft | 1178 kts | 76° |
| 2026-05-04 10:08 | 52.01309 | -37.80322 | 60400 ft | 1181 kts | 76° |
| 2026-05-04 10:09 | 52.05067 | -37.54337 | 60387 ft | 1183 kts | 76° |
| 2026-05-04 10:09 | 52.08776 | -37.28262 | 60391 ft | 1185 kts | 76° |
| 2026-05-04 10:10 | 52.12433 | -37.02104 | 60386 ft | 1186 kts | 76° |
| 2026-05-04 10:10 | 52.16037 | -36.75852 | 60427 ft | 1189 kts | 77° |
| 2026-05-04 10:11 | 52.19589 | -36.49529 | 60407 ft | 1191 kts | 77° |
| 2026-05-04 10:11 | 52.23087 | -36.23120 | 60426 ft | 1192 kts | 77° |
| 2026-05-04 10:12 | 52.26503 | -35.96842 | 60414 ft | 1193 kts | 77° |
| 2026-05-04 10:12 | 52.29887 | -35.70323 | 60422 ft | 1193 kts | 77° |
| 2026-05-04 10:13 | 52.33213 | -35.43753 | 60419 ft | 1193 kts | 78° |
| 2026-05-04 10:13 | 52.36479 | -35.17131 | 60431 ft | 1194 kts | 78° |
| 2026-05-04 10:14 | 52.39688 | -34.90462 | 60417 ft | 1194 kts | 78° |
| 2026-05-04 10:16 | 52.50416 | -33.97064 | 60431 ft | 1173 kts | 79° |
| 2026-05-04 10:16 | 52.51862 | -33.83929 | 60432 ft | 1167 kts | 79° |
| 2026-05-04 10:16 | 52.54703 | -33.57698 | 60439 ft | 1167 kts | 79° |
| 2026-05-04 10:17 | 52.57487 | -33.31424 | 60435 ft | 1167 kts | 79° |
| 2026-05-04 10:19 | 52.68048 | -32.25903 | 60439 ft | 1172 kts | 80° |
| 2026-05-04 10:19 | 52.70553 | -31.99317 | 60432 ft | 1175 kts | 81° |
| 2026-05-04 10:20 | 52.73006 | -31.72637 | 60433 ft | 1177 kts | 81° |
| 2026-05-04 10:20 | 52.75402 | -31.45874 | 60437 ft | 1180 kts | 81° |
| 2026-05-04 10:21 | 52.77742 | -31.19030 | 60432 ft | 1182 kts | 81° |
| 2026-05-04 10:21 | 52.80025 | -30.92129 | 60429 ft | 1184 kts | 82° |
| 2026-05-04 10:22 | 52.83326 | -30.51830 | 60441 ft | 1185 kts | 82° |
| 2026-05-04 10:23 | 52.85461 | -30.24790 | 60418 ft | 1186 kts | 82° |
| 2026-05-04 10:25 | 52.93390 | -29.16344 | 60422 ft | 1177 kts | 83° |
| 2026-05-04 10:25 | 52.95192 | -28.89568 | 60431 ft | 1165 kts | 83° |
| 2026-05-04 10:26 | 52.96927 | -28.62851 | 60427 ft | 1166 kts | 83° |
| 2026-05-04 10:26 | 52.98605 | -28.36091 | 60437 ft | 1167 kts | 83° |
| 2026-05-04 10:27 | 53.00226 | -28.09272 | 60421 ft | 1170 kts | 84° |
| 2026-05-04 10:27 | 53.01789 | -27.82333 | 60431 ft | 1173 kts | 84° |
| 2026-05-04 10:28 | 53.03297 | -27.55310 | 60402 ft | 1176 kts | 84° |
| 2026-05-04 10:28 | 53.04747 | -27.28213 | 60420 ft | 1179 kts | 84° |
| 2026-05-04 10:29 | 53.06136 | -27.01058 | 60416 ft | 1180 kts | 84° |
| 2026-05-04 10:29 | 53.07467 | -26.73836 | 60404 ft | 1181 kts | 85° |
| 2026-05-04 10:30 | 53.08736 | -26.46580 | 60412 ft | 1183 kts | 85° |
| 2026-05-04 10:30 | 53.09936 | -26.19449 | 60427 ft | 1185 kts | 85° |
| 2026-05-04 10:31 | 53.11084 | -25.92085 | 60409 ft | 1186 kts | 85° |
| 2026-05-04 10:32 | 53.14610 | -24.96054 | 60396 ft | 1188 kts | 86° |
| 2026-05-04 10:33 | 53.15478 | -24.68543 | 60404 ft | 1188 kts | 86° |
| 2026-05-04 10:33 | 53.16281 | -24.41047 | 60390 ft | 1188 kts | 86° |
| 2026-05-04 10:34 | 53.17020 | -24.13549 | 60395 ft | 1189 kts | 86° |
| 2026-05-04 10:34 | 53.17587 | -23.90675 | 60372 ft | 1188 kts | 87° |
| 2026-05-04 10:35 | 53.18211 | -23.63150 | 60366 ft | 1189 kts | 87° |
| 2026-05-04 10:35 | 53.18771 | -23.35613 | 60361 ft | 1188 kts | 87° |
| 2026-05-04 10:36 | 53.19267 | -23.08083 | 60353 ft | 1187 kts | 88° |
| 2026-05-04 10:36 | 53.19701 | -22.80570 | 60349 ft | 1187 kts | 88° |
| 2026-05-04 10:37 | 53.20069 | -22.53063 | 60362 ft | 1187 kts | 88° |
| 2026-05-04 10:37 | 53.20375 | -22.25538 | 60356 ft | 1187 kts | 88° |
| 2026-05-04 10:39 | 53.20946 | -21.29132 | 60313 ft | 1187 kts | 89° |
| 2026-05-04 10:40 | 53.20967 | -21.01587 | 60324 ft | 1187 kts | 89° |
| 2026-05-04 10:40 | 53.20924 | -20.74040 | 60320 ft | 1187 kts | 89° |
| 2026-05-04 10:41 | 53.20817 | -20.46500 | 60304 ft | 1187 kts | 90° |
| 2026-05-04 10:41 | 53.20647 | -20.18980 | 60306 ft | 1187 kts | 90° |
| 2026-05-04 10:42 | 53.20414 | -19.91444 | 60292 ft | 1187 kts | 90° |
| 2026-05-04 10:42 | 53.20117 | -19.63930 | 60297 ft | 1187 kts | 90° |
| 2026-05-04 10:43 | 53.19757 | -19.36413 | 60285 ft | 1187 kts | 91° |
| 2026-05-04 10:45 | 53.17688 | -18.26658 | 60264 ft | 1186 kts | 91° |
| 2026-05-04 10:45 | 53.17012 | -17.99192 | 60267 ft | 1186 kts | 92° |
| 2026-05-04 10:46 | 53.16273 | -17.71747 | 60245 ft | 1186 kts | 92° |
| 2026-05-04 10:46 | 53.15471 | -17.44301 | 60260 ft | 1185 kts | 92° |
| 2026-05-04 10:47 | 53.14608 | -17.16914 | 60235 ft | 1185 kts | 92° |
| 2026-05-04 10:47 | 53.13680 | -16.89513 | 60247 ft | 1185 kts | 92° |
| 2026-05-04 10:49 | 53.09345 | -15.80088 | 60220 ft | 1184 kts | 93° |
| 2026-05-04 10:50 | 53.08105 | -15.52777 | 60222 ft | 1184 kts | 94° |
| 2026-05-04 10:52 | 53.02534 | -14.43928 | 60205 ft | 1183 kts | 95° |
| 2026-05-04 10:52 | 53.00985 | -14.16739 | 60217 ft | 1183 kts | 95° |
| 2026-05-04 10:54 | 52.92037 | -13.08538 | 60206 ft | 1184 kts | 98° |
| 2026-05-04 10:56 | 52.81721 | -12.00798 | 60178 ft | 1186 kts | 99° |
| 2026-05-04 10:57 | 52.78986 | -11.73915 | 60155 ft | 1187 kts | 99° |
| 2026-05-04 10:57 | 52.76189 | -11.47053 | 60161 ft | 1187 kts | 99° |
| 2026-05-04 10:58 | 52.73332 | -11.20229 | 60152 ft | 1187 kts | 99° |
| 2026-05-04 10:58 | 52.70411 | -10.93408 | 60150 ft | 1187 kts | 100° |
| 2026-05-04 10:59 | 52.67433 | -10.66660 | 60139 ft | 1187 kts | 100° |
| 2026-05-04 10:59 | 52.64396 | -10.39949 | 60132 ft | 1187 kts | 100° |
| 2026-05-04 11:00 | 52.61294 | -10.13243 | 60131 ft | 1187 kts | 101° |
| 2026-05-04 11:02 | 52.48315 | -9.07001 | 60100 ft | 1185 kts | 101° |
| 2026-05-04 11:05 | 52.21521 | -7.10137 | 60070 ft | 1183 kts | 103° |
| 2026-05-04 11:06 | 52.17702 | -6.84070 | 60070 ft | 1183 kts | 103° |
| 2026-05-04 11:06 | 52.13822 | -6.58021 | 60062 ft | 1183 kts | 104° |
| 2026-05-04 11:10 | 51.87140 | -4.75961 | 60026 ft | 1186 kts | 104° |
| 2026-05-04 11:12 | 51.71151 | -3.72749 | 60014 ft | 1187 kts | 104° |
| 2026-05-04 11:12 | 51.67000 | -3.46978 | 60025 ft | 1187 kts | 105° |
| 2026-05-04 11:13 | 51.62798 | -3.21284 | 60038 ft | 1188 kts | 105° |
| 2026-05-04 11:13 | 51.58537 | -2.95625 | 60043 ft | 1188 kts | 105° |
| 2026-05-04 11:16 | 51.36615 | -1.69256 | 57870 ft | 1117 kts | 106° |
| 2026-05-04 11:16 | 51.34501 | -1.57371 | 54585 ft | 1107 kts | 104° |
| 2026-05-04 11:16 | 51.33067 | -1.45380 | 51454 ft | 1090 kts | 96° |
| 2026-05-04 11:17 | 51.32533 | -1.33425 | 48241 ft | 1067 kts | 95° |
| 2026-05-04 11:17 | 51.31599 | -1.21819 | 45574 ft | 1037 kts | 99° |
| 2026-05-04 11:19 | 51.32224 | -0.54859 | 34313 ft | 687 kts | 70° |
| 2026-05-04 11:19 | 51.34335 | -0.48321 | 32340 ft | 640 kts | 58° |
| 2026-05-04 11:19 | 51.36467 | -0.42386 | 29884 ft | 592 kts | 68° |
| 2026-05-04 11:19 | 51.37628 | -0.36260 | 26171 ft | 569 kts | 86° |
| 2026-05-04 11:20 | 51.37544 | -0.30115 | 23524 ft | 539 kts | 103° |
| 2026-05-04 11:20 | 51.36490 | -0.24689 | 20704 ft | 512 kts | 113° |
| 2026-05-04 11:20 | 51.35395 | -0.19369 | 17979 ft | 496 kts | 101° |
| 2026-05-04 11:20 | 51.35319 | -0.13977 | 15256 ft | 480 kts | 82° |
| 2026-05-04 11:22 | 51.46953 | -0.18719 | 2275 ft | 318 kts | 283° |
| 2026-05-04 11:22 | 51.47355 | -0.21754 | 2386 ft | 241 kts | 282° |
| 2026-05-04 11:23 | 51.47603 | -0.24074 | 2332 ft | 194 kts | 279° |
| 2026-05-04 11:23 | 51.47771 | -0.26238 | 2236 ft | 199 kts | 276° |
| 2026-05-04 11:24 | 51.47825 | -0.39280 | 601 ft | 187 kts | 270° |
| 2026-05-04 11:25 | 51.47792 | -0.41358 | 357 ft | 186 kts | 269° |
| 2026-05-04 11:25 | 51.47767 | -0.43423 | 143 ft | 185 kts | 270° |
| 2026-05-04 11:25 | 51.47759 | -0.45353 | 103 ft | 161 kts | 272° |
| 2026-05-04 11:26 | 51.47758 | -0.46848 | 99 ft | 25 kts | 270° |
| 2026-05-04 11:27 | 51.47173 | -0.46870 | 94 ft | 34 kts | 179° |
| 2026-05-04 11:28 | 51.47054 | -0.46758 | 94 ft | 26 kts | 95° |
| 2026-05-04 11:28 | 51.46935 | -0.46600 | 92 ft | 21 kts | 140° |
| 2026-05-04 11:28 | 51.46933 | -0.46574 | 93 ft | 8 kts | 97° |
| 2026-05-04 11:28 | 51.46943 | -0.46524 | 96 ft | 9 kts | 59° |
| 2026-05-04 11:29 | 51.46969 | -0.46458 | 95 ft | 0 kts | 56° |